sensor_id;sensor_type;location;lat;lon;timestamp;temperature;humidity
27633;DHT22;15046;50.930;13.334;2022-09-13T00:00:44;13.90;99.90
27633;DHT22;15046;50.930;13.334;2022-09-13T00:03:11;13.90;99.90
27633;DHT22;15046;50.930;13.334;2022-09-13T00:05:38;13.80;99.90
27633;DHT22;15046;50.930;13.334;2022-09-13T00:08:05;13.80;99.90
27633;DHT22;15046;50.930;13.334;2022-09-13T00:10:33;13.80;99.90
27633;DHT22;15046;50.930;13.334;2022-09-13T00:26:42;13.60;99.90
27633;DHT22;15046;50.930;13.334;2022-09-13T00:29:08;13.60;99.90
27633;DHT22;15046;50.930;13.334;2022-09-13T00:31:34;13.60;99.90
27633;DHT22;15046;50.930;13.334;2022-09-13T00:34:00;13.50;99.90
27633;DHT22;15046;50.930;13.334;2022-09-13T00:36:26;13.50;99.90
27633;DHT22;15046;50.930;13.334;2022-09-13T00:38:51;13.50;99.90
27633;DHT22;15046;50.930;13.334;2022-09-13T00:41:19;13.50;99.90
27633;DHT22;15046;50.930;13.334;2022-09-13T00:46:15;13.40;99.90
27633;DHT22;15046;50.930;13.334;2022-09-13T00:48:44;13.40;99.90
27633;DHT22;15046;50.930;13.334;2022-09-13T00:51:12;13.40;99.90
27633;DHT22;15046;50.930;13.334;2022-09-13T00:53:42;13.30;99.90
27633;DHT22;15046;50.930;13.334;2022-09-13T00:56:39;13.30;99.90
27633;DHT22;15046;50.930;13.334;2022-09-13T00:59:12;13.30;99.90
27633;DHT22;15046;50.930;13.334;2022-09-13T01:01:47;13.30;99.90
27633;DHT22;15046;50.930;13.334;2022-09-13T01:04:15;13.30;99.90
27633;DHT22;15046;50.930;13.334;2022-09-13T01:06:42;13.20;99.90
27633;DHT22;15046;50.930;13.334;2022-09-13T01:09:10;13.20;99.90
27633;DHT22;15046;50.930;13.334;2022-09-13T01:11:51;13.10;99.90
27633;DHT22;15046;50.930;13.334;2022-09-13T01:14:26;13.20;99.90
27633;DHT22;15046;50.930;13.334;2022-09-13T01:16:52;13.20;99.90
27633;DHT22;15046;50.930;13.334;2022-09-13T01:19:19;13.20;99.90
27633;DHT22;15046;50.930;13.334;2022-09-13T01:24:54;13.10;99.90
27633;DHT22;15046;50.930;13.334;2022-09-13T01:30:22;13.10;99.90
27633;DHT22;15046;50.930;13.334;2022-09-13T01:33:11;13.00;99.90
27633;DHT22;15046;50.930;13.334;2022-09-13T01:38:53;13.10;99.90
27633;DHT22;15046;50.930;13.334;2022-09-13T01:44:45;13.00;99.90
27633;DHT22;15046;50.930;13.334;2022-09-13T01:47:29;13.00;99.90
27633;DHT22;15046;50.930;13.334;2022-09-13T01:52:55;13.00;99.90
27633;DHT22;15046;50.930;13.334;2022-09-13T01:55:24;13.10;99.90
27633;DHT22;15046;50.930;13.334;2022-09-13T02:00:42;13.10;99.90
27633;DHT22;15046;50.930;13.334;2022-09-13T02:03:17;13.10;99.90
27633;DHT22;15046;50.930;13.334;2022-09-13T02:05:56;13.10;99.90
27633;DHT22;15046;50.930;13.334;2022-09-13T02:08:33;13.20;99.90
27633;DHT22;15046;50.930;13.334;2022-09-13T02:11:13;13.20;99.90
27633;DHT22;15046;50.930;13.334;2022-09-13T02:13:46;13.20;99.90
27633;DHT22;15046;50.930;13.334;2022-09-13T02:19:25;13.30;99.90
27633;DHT22;15046;50.930;13.334;2022-09-13T02:21:57;13.30;99.90
27633;DHT22;15046;50.930;13.334;2022-09-13T02:24:30;13.30;99.90
27633;DHT22;15046;50.930;13.334;2022-09-13T02:27:01;13.40;99.90
27633;DHT22;15046;50.930;13.334;2022-09-13T02:29:30;13.40;99.90
27633;DHT22;15046;50.930;13.334;2022-09-13T02:32:05;13.40;99.90
27633;DHT22;15046;50.930;13.334;2022-09-13T02:34:50;13.40;99.90
27633;DHT22;15046;50.930;13.334;2022-09-13T02:37:19;13.40;99.90
27633;DHT22;15046;50.930;13.334;2022-09-13T02:39:54;13.40;99.90
27633;DHT22;15046;50.930;13.334;2022-09-13T02:42:30;13.40;99.90
27633;DHT22;15046;50.930;13.334;2022-09-13T02:44:58;13.40;99.90
27633;DHT22;15046;50.930;13.334;2022-09-13T02:49:56;13.40;99.90
27633;DHT22;15046;50.930;13.334;2022-09-13T02:58:08;13.40;99.90
27633;DHT22;15046;50.930;13.334;2022-09-13T03:00:36;13.40;99.90
27633;DHT22;15046;50.930;13.334;2022-09-13T03:03:04;13.30;99.90
27633;DHT22;15046;50.930;13.334;2022-09-13T03:05:31;13.30;99.90
27633;DHT22;15046;50.930;13.334;2022-09-13T03:07:58;13.30;99.90
27633;DHT22;15046;50.930;13.334;2022-09-13T03:10:26;13.30;99.90
27633;DHT22;15046;50.930;13.334;2022-09-13T03:13:24;13.30;99.90
27633;DHT22;15046;50.930;13.334;2022-09-13T03:16:32;13.30;99.90
27633;DHT22;15046;50.930;13.334;2022-09-13T03:30:17;13.30;99.90
27633;DHT22;15046;50.930;13.334;2022-09-13T03:33:01;13.30;99.90
27633;DHT22;15046;50.930;13.334;2022-09-13T03:38:12;13.30;99.90
27633;DHT22;15046;50.930;13.334;2022-09-13T03:40:59;13.30;99.90
27633;DHT22;15046;50.930;13.334;2022-09-13T03:43:48;13.30;99.90
27633;DHT22;15046;50.930;13.334;2022-09-13T03:46:20;13.30;99.90
27633;DHT22;15046;50.930;13.334;2022-09-13T03:48:48;13.30;99.90
27633;DHT22;15046;50.930;13.334;2022-09-13T03:51:15;13.30;99.90
27633;DHT22;15046;50.930;13.334;2022-09-13T03:53:46;13.30;99.90
27633;DHT22;15046;50.930;13.334;2022-09-13T03:56:15;13.30;99.90
27633;DHT22;15046;50.930;13.334;2022-09-13T03:58:42;13.30;99.90
27633;DHT22;15046;50.930;13.334;2022-09-13T04:01:08;13.30;99.90
27633;DHT22;15046;50.930;13.334;2022-09-13T04:03:38;13.30;99.90
27633;DHT22;15046;50.930;13.334;2022-09-13T04:06:04;13.30;99.90
27633;DHT22;15046;50.930;13.334;2022-09-13T04:08:31;13.30;99.90
27633;DHT22;15046;50.930;13.334;2022-09-13T04:10:58;13.20;99.90
27633;DHT22;15046;50.930;13.334;2022-09-13T04:13:25;13.30;99.90
27633;DHT22;15046;50.930;13.334;2022-09-13T04:15:51;13.20;99.90
27633;DHT22;15046;50.930;13.334;2022-09-13T04:18:24;13.20;99.90
27633;DHT22;15046;50.930;13.334;2022-09-13T04:20:54;13.20;99.90
27633;DHT22;15046;50.930;13.334;2022-09-13T04:23:22;13.20;99.90
27633;DHT22;15046;50.930;13.334;2022-09-13T04:25:49;13.20;99.90
27633;DHT22;15046;50.930;13.334;2022-09-13T04:28:18;13.30;99.90
27633;DHT22;15046;50.930;13.334;2022-09-13T04:30:46;13.30;99.90
27633;DHT22;15046;50.930;13.334;2022-09-13T04:33:13;13.30;99.90
27633;DHT22;15046;50.930;13.334;2022-09-13T04:36:10;13.30;99.90
27633;DHT22;15046;50.930;13.334;2022-09-13T04:38:48;13.30;99.90
27633;DHT22;15046;50.930;13.334;2022-09-13T04:41:16;13.30;99.90
27633;DHT22;15046;50.930;13.334;2022-09-13T04:43:43;13.30;99.90
27633;DHT22;15046;50.930;13.334;2022-09-13T04:46:13;13.40;99.90
27633;DHT22;15046;50.930;13.334;2022-09-13T04:48:57;13.40;99.90
27633;DHT22;15046;50.930;13.334;2022-09-13T04:51:25;13.40;99.90
27633;DHT22;15046;50.930;13.334;2022-09-13T04:53:52;13.40;99.90
27633;DHT22;15046;50.930;13.334;2022-09-13T04:56:24;13.50;99.90
27633;DHT22;15046;50.930;13.334;2022-09-13T04:58:50;13.50;99.90
27633;DHT22;15046;50.930;13.334;2022-09-13T05:01:29;13.50;99.90
27633;DHT22;15046;50.930;13.334;2022-09-13T05:03:55;13.60;99.90
27633;DHT22;15046;50.930;13.334;2022-09-13T05:06:21;13.60;99.90
27633;DHT22;15046;50.930;13.334;2022-09-13T05:08:52;13.60;99.90
27633;DHT22;15046;50.930;13.334;2022-09-13T05:11:20;13.60;99.90
27633;DHT22;15046;50.930;13.334;2022-09-13T05:13:56;13.70;99.90
27633;DHT22;15046;50.930;13.334;2022-09-13T05:16:24;13.70;99.90
27633;DHT22;15046;50.930;13.334;2022-09-13T05:18:51;13.80;99.90
27633;DHT22;15046;50.930;13.334;2022-09-13T05:21:17;13.80;99.90
27633;DHT22;15046;50.930;13.334;2022-09-13T05:23:43;13.90;99.90
27633;DHT22;15046;50.930;13.334;2022-09-13T05:26:09;14.00;99.90
27633;DHT22;15046;50.930;13.334;2022-09-13T05:28:36;14.00;99.90
27633;DHT22;15046;50.930;13.334;2022-09-13T05:31:05;14.10;99.90
27633;DHT22;15046;50.930;13.334;2022-09-13T05:33:33;14.10;99.90
27633;DHT22;15046;50.930;13.334;2022-09-13T05:35:59;14.20;99.90
27633;DHT22;15046;50.930;13.334;2022-09-13T05:38:26;14.20;99.90
27633;DHT22;15046;50.930;13.334;2022-09-13T05:41:00;14.30;99.90
27633;DHT22;15046;50.930;13.334;2022-09-13T05:43:30;14.30;99.90
27633;DHT22;15046;50.930;13.334;2022-09-13T05:46:03;14.30;99.90
27633;DHT22;15046;50.930;13.334;2022-09-13T05:48:30;14.30;99.90
27633;DHT22;15046;50.930;13.334;2022-09-13T05:51:03;14.30;99.90
27633;DHT22;15046;50.930;13.334;2022-09-13T05:53:30;14.30;99.90
27633;DHT22;15046;50.930;13.334;2022-09-13T05:55:56;14.30;99.90
27633;DHT22;15046;50.930;13.334;2022-09-13T05:58:22;14.40;99.90
27633;DHT22;15046;50.930;13.334;2022-09-13T06:00:57;14.40;99.90
27633;DHT22;15046;50.930;13.334;2022-09-13T06:03:23;14.40;99.90
27633;DHT22;15046;50.930;13.334;2022-09-13T06:05:53;14.50;99.90
27633;DHT22;15046;50.930;13.334;2022-09-13T06:08:19;14.60;99.90
27633;DHT22;15046;50.930;13.334;2022-09-13T06:11:05;14.70;99.90
27633;DHT22;15046;50.930;13.334;2022-09-13T06:13:32;14.80;99.90
27633;DHT22;15046;50.930;13.334;2022-09-13T06:15:59;15.10;99.90
27633;DHT22;15046;50.930;13.334;2022-09-13T06:18:26;15.30;99.90
27633;DHT22;15046;50.930;13.334;2022-09-13T06:21:01;15.50;99.90
27633;DHT22;15046;50.930;13.334;2022-09-13T06:23:27;15.70;99.90
27633;DHT22;15046;50.930;13.334;2022-09-13T06:26:11;15.90;99.90
27633;DHT22;15046;50.930;13.334;2022-09-13T06:28:38;15.90;99.90
27633;DHT22;15046;50.930;13.334;2022-09-13T06:31:11;16.10;99.90
27633;DHT22;15046;50.930;13.334;2022-09-13T06:33:39;16.10;99.90
27633;DHT22;15046;50.930;13.334;2022-09-13T06:36:07;16.20;99.90
27633;DHT22;15046;50.930;13.334;2022-09-13T06:38:34;16.30;99.90
27633;DHT22;15046;50.930;13.334;2022-09-13T06:41:05;16.40;99.90
27633;DHT22;15046;50.930;13.334;2022-09-13T06:43:32;16.40;99.90
27633;DHT22;15046;50.930;13.334;2022-09-13T06:46:04;16.50;99.90
27633;DHT22;15046;50.930;13.334;2022-09-13T06:48:32;16.60;99.90
27633;DHT22;15046;50.930;13.334;2022-09-13T06:51:00;16.80;99.90
27633;DHT22;15046;50.930;13.334;2022-09-13T06:53:27;16.90;99.90
27633;DHT22;15046;50.930;13.334;2022-09-13T06:56:37;17.10;99.90
27633;DHT22;15046;50.930;13.334;2022-09-13T06:59:04;17.30;99.90
27633;DHT22;15046;50.930;13.334;2022-09-13T07:01:35;17.50;99.90
27633;DHT22;15046;50.930;13.334;2022-09-13T07:04:06;17.50;99.90
27633;DHT22;15046;50.930;13.334;2022-09-13T07:06:35;17.60;99.90
27633;DHT22;15046;50.930;13.334;2022-09-13T07:09:04;17.50;99.90
27633;DHT22;15046;50.930;13.334;2022-09-13T07:11:34;17.60;99.90
27633;DHT22;15046;50.930;13.334;2022-09-13T07:14:00;17.60;99.90
27633;DHT22;15046;50.930;13.334;2022-09-13T07:16:28;17.70;99.90
27633;DHT22;15046;50.930;13.334;2022-09-13T07:19:03;17.80;99.90
27633;DHT22;15046;50.930;13.334;2022-09-13T07:21:33;17.90;99.90
27633;DHT22;15046;50.930;13.334;2022-09-13T07:24:00;18.00;99.90
27633;DHT22;15046;50.930;13.334;2022-09-13T07:26:26;18.10;99.90
27633;DHT22;15046;50.930;13.334;2022-09-13T07:28:55;18.30;99.90
27633;DHT22;15046;50.930;13.334;2022-09-13T07:31:24;18.40;99.90
27633;DHT22;15046;50.930;13.334;2022-09-13T07:33:55;18.50;99.90
27633;DHT22;15046;50.930;13.334;2022-09-13T07:36:21;18.50;99.90
27633;DHT22;15046;50.930;13.334;2022-09-13T07:38:47;18.50;99.90
27633;DHT22;15046;50.930;13.334;2022-09-13T07:41:15;18.40;99.90
27633;DHT22;15046;50.930;13.334;2022-09-13T07:43:42;18.30;99.90
27633;DHT22;15046;50.930;13.334;2022-09-13T07:46:10;18.10;99.90
27633;DHT22;15046;50.930;13.334;2022-09-13T07:48:40;17.90;99.90
27633;DHT22;15046;50.930;13.334;2022-09-13T07:51:08;17.70;99.90
27633;DHT22;15046;50.930;13.334;2022-09-13T07:53:36;17.50;99.90
27633;DHT22;15046;50.930;13.334;2022-09-13T07:56:09;17.10;99.90
27633;DHT22;15046;50.930;13.334;2022-09-13T07:58:37;16.80;99.90
27633;DHT22;15046;50.930;13.334;2022-09-13T08:01:08;16.50;99.90
27633;DHT22;15046;50.930;13.334;2022-09-13T08:03:34;16.20;99.90
27633;DHT22;15046;50.930;13.334;2022-09-13T08:06:01;16.10;99.90
27633;DHT22;15046;50.930;13.334;2022-09-13T08:08:28;16.10;99.90
27633;DHT22;15046;50.930;13.334;2022-09-13T08:10:54;16.10;99.90
27633;DHT22;15046;50.930;13.334;2022-09-13T08:13:20;15.90;99.90
27633;DHT22;15046;50.930;13.334;2022-09-13T08:15:46;15.70;99.90
27633;DHT22;15046;50.930;13.334;2022-09-13T08:18:13;15.60;99.90
27633;DHT22;15046;50.930;13.334;2022-09-13T08:20:38;15.40;99.90
27633;DHT22;15046;50.930;13.334;2022-09-13T08:23:05;15.40;99.90
27633;DHT22;15046;50.930;13.334;2022-09-13T08:25:33;15.30;99.90
27633;DHT22;15046;50.930;13.334;2022-09-13T08:28:14;15.20;99.90
27633;DHT22;15046;50.930;13.334;2022-09-13T08:30:40;15.20;99.90
27633;DHT22;15046;50.930;13.334;2022-09-13T08:33:11;15.20;99.90
27633;DHT22;15046;50.930;13.334;2022-09-13T08:35:38;15.20;99.90
27633;DHT22;15046;50.930;13.334;2022-09-13T08:38:04;15.20;99.90
27633;DHT22;15046;50.930;13.334;2022-09-13T08:40:41;15.30;99.90
27633;DHT22;15046;50.930;13.334;2022-09-13T08:48:39;15.60;99.90
27633;DHT22;15046;50.930;13.334;2022-09-13T08:51:18;15.70;99.90
27633;DHT22;15046;50.930;13.334;2022-09-13T08:53:49;15.90;99.90
27633;DHT22;15046;50.930;13.334;2022-09-13T08:56:22;16.10;99.90
27633;DHT22;15046;50.930;13.334;2022-09-13T09:07:19;17.10;99.90
27633;DHT22;15046;50.930;13.334;2022-09-13T09:10:16;17.20;99.90
27633;DHT22;15046;50.930;13.334;2022-09-13T09:20:42;17.70;99.90
27633;DHT22;15046;50.930;13.334;2022-09-13T09:23:33;18.00;99.90
27633;DHT22;15046;50.930;13.334;2022-09-13T09:26:18;18.30;99.90
27633;DHT22;15046;50.930;13.334;2022-09-13T09:28:54;18.60;99.90
27633;DHT22;15046;50.930;13.334;2022-09-13T09:34:48;19.40;99.90
27633;DHT22;15046;50.930;13.334;2022-09-13T09:37:19;19.60;99.90
27633;DHT22;15046;50.930;13.334;2022-09-13T09:39:49;19.80;99.90
27633;DHT22;15046;50.930;13.334;2022-09-13T09:42:25;20.10;99.90
27633;DHT22;15046;50.930;13.334;2022-09-13T09:44:59;20.20;99.90
27633;DHT22;15046;50.930;13.334;2022-09-13T09:47:28;20.20;99.90
27633;DHT22;15046;50.930;13.334;2022-09-13T09:50:14;20.10;99.90
27633;DHT22;15046;50.930;13.334;2022-09-13T09:55:30;21.20;99.90
27633;DHT22;15046;50.930;13.334;2022-09-13T09:58:04;21.60;99.90
27633;DHT22;15046;50.930;13.334;2022-09-13T10:00:35;21.80;99.90
27633;DHT22;15046;50.930;13.334;2022-09-13T10:03:25;21.90;99.90
27633;DHT22;15046;50.930;13.334;2022-09-13T10:06:04;21.90;99.90
27633;DHT22;15046;50.930;13.334;2022-09-13T10:08:33;21.70;99.90
27633;DHT22;15046;50.930;13.334;2022-09-13T10:10:59;21.70;99.90
27633;DHT22;15046;50.930;13.334;2022-09-13T10:13:27;21.90;99.90
27633;DHT22;15046;50.930;13.334;2022-09-13T10:15:58;22.10;99.90
27633;DHT22;15046;50.930;13.334;2022-09-13T10:18:34;22.40;99.90
27633;DHT22;15046;50.930;13.334;2022-09-13T10:23:37;22.30;99.90
27633;DHT22;15046;50.930;13.334;2022-09-13T10:26:13;22.20;99.90
27633;DHT22;15046;50.930;13.334;2022-09-13T10:28:59;22.30;99.90
27633;DHT22;15046;50.930;13.334;2022-09-13T10:31:37;22.20;99.90
27633;DHT22;15046;50.930;13.334;2022-09-13T10:36:34;21.90;99.90
27633;DHT22;15046;50.930;13.334;2022-09-13T10:39:16;21.90;99.90
27633;DHT22;15046;50.930;13.334;2022-09-13T10:41:58;21.90;99.90
27633;DHT22;15046;50.930;13.334;2022-09-13T10:47:11;22.20;99.90
27633;DHT22;15046;50.930;13.334;2022-09-13T10:49:55;22.30;99.90
27633;DHT22;15046;50.930;13.334;2022-09-13T10:52:37;22.40;99.90
27633;DHT22;15046;50.930;13.334;2022-09-13T10:57:45;22.30;99.90
27633;DHT22;15046;50.930;13.334;2022-09-13T11:00:14;22.30;99.90
27633;DHT22;15046;50.930;13.334;2022-09-13T11:06:03;22.50;99.90
27633;DHT22;15046;50.930;13.334;2022-09-13T11:08:55;22.80;99.50
27633;DHT22;15046;50.930;13.334;2022-09-13T11:32:06;22.40;97.00
27633;DHT22;15046;50.930;13.334;2022-09-13T11:34:36;22.50;96.90
27633;DHT22;15046;50.930;13.334;2022-09-13T11:37:36;22.70;96.90
27633;DHT22;15046;50.930;13.334;2022-09-13T11:49:17;24.90;93.50
27633;DHT22;15046;50.930;13.334;2022-09-13T11:52:07;25.80;91.50
27633;DHT22;15046;50.930;13.334;2022-09-13T11:54:58;27.30;90.80
27633;DHT22;15046;50.930;13.334;2022-09-13T11:57:32;28.50;85.80
27633;DHT22;15046;50.930;13.334;2022-09-13T12:00:14;28.20;81.20
27633;DHT22;15046;50.930;13.334;2022-09-13T12:03:23;27.40;80.90
27633;DHT22;15046;50.930;13.334;2022-09-13T12:05:57;26.30;82.40
27633;DHT22;15046;50.930;13.334;2022-09-13T12:08:32;25.60;81.80
27633;DHT22;15046;50.930;13.334;2022-09-13T12:11:05;24.90;82.10
27633;DHT22;15046;50.930;13.334;2022-09-13T12:13:40;24.40;83.00
27633;DHT22;15046;50.930;13.334;2022-09-13T12:16:10;24.20;84.00
27633;DHT22;15046;50.930;13.334;2022-09-13T12:18:43;24.10;83.70
27633;DHT22;15046;50.930;13.334;2022-09-13T12:21:13;24.00;83.60
27633;DHT22;15046;50.930;13.334;2022-09-13T12:23:55;24.00;84.00
27633;DHT22;15046;50.930;13.334;2022-09-13T12:26:43;24.70;84.30
27633;DHT22;15046;50.930;13.334;2022-09-13T12:29:39;25.60;81.20
27633;DHT22;15046;50.930;13.334;2022-09-13T12:32:09;26.40;79.40
27633;DHT22;15046;50.930;13.334;2022-09-13T13:00:20;26.00;71.60
27633;DHT22;15046;50.930;13.334;2022-09-13T13:02:55;26.10;72.80
27633;DHT22;15046;50.930;13.334;2022-09-13T13:05:33;26.40;72.30
27633;DHT22;15046;50.930;13.334;2022-09-13T13:10:58;26.90;72.30
27633;DHT22;15046;50.930;13.334;2022-09-13T13:13:35;27.10;70.90
27633;DHT22;15046;50.930;13.334;2022-09-13T13:16:06;27.80;70.10
27633;DHT22;15046;50.930;13.334;2022-09-13T13:18:46;28.90;68.30
27633;DHT22;15046;50.930;13.334;2022-09-13T13:21:37;30.00;67.20
27633;DHT22;15046;50.930;13.334;2022-09-13T13:26:42;30.60;62.70
27633;DHT22;15046;50.930;13.334;2022-09-13T13:29:30;30.60;62.30
27633;DHT22;15046;50.930;13.334;2022-09-13T13:57:43;30.60;60.90
27633;DHT22;15046;50.930;13.334;2022-09-13T14:21:39;25.80;68.50
27633;DHT22;15046;50.930;13.334;2022-09-13T14:24:16;25.40;68.90
27633;DHT22;15046;50.930;13.334;2022-09-13T14:26:48;25.00;69.70
27633;DHT22;15046;50.930;13.334;2022-09-13T14:29:37;24.60;70.40
27633;DHT22;15046;50.930;13.334;2022-09-13T14:32:10;24.40;71.60
27633;DHT22;15046;50.930;13.334;2022-09-13T14:34:38;24.20;71.80
27633;DHT22;15046;50.930;13.334;2022-09-13T14:37:14;24.10;72.40
27633;DHT22;15046;50.930;13.334;2022-09-13T14:39:53;23.90;73.00
27633;DHT22;15046;50.930;13.334;2022-09-13T14:42:19;23.60;74.00
27633;DHT22;15046;50.930;13.334;2022-09-13T14:44:46;23.50;73.90
27633;DHT22;15046;50.930;13.334;2022-09-13T14:47:28;23.40;74.00
27633;DHT22;15046;50.930;13.334;2022-09-13T14:50:12;23.30;74.20
27633;DHT22;15046;50.930;13.334;2022-09-13T14:52:48;23.20;74.40
27633;DHT22;15046;50.930;13.334;2022-09-13T14:55:20;23.20;75.00
27633;DHT22;15046;50.930;13.334;2022-09-13T14:57:53;23.20;76.30
27633;DHT22;15046;50.930;13.334;2022-09-13T15:00:23;23.20;76.20
27633;DHT22;15046;50.930;13.334;2022-09-13T15:02:53;23.30;76.10
27633;DHT22;15046;50.930;13.334;2022-09-13T15:05:22;23.30;76.40
27633;DHT22;15046;50.930;13.334;2022-09-13T15:07:49;23.30;75.80
27633;DHT22;15046;50.930;13.334;2022-09-13T15:10:19;23.30;76.10
27633;DHT22;15046;50.930;13.334;2022-09-13T15:12:55;23.30;76.10
27633;DHT22;15046;50.930;13.334;2022-09-13T15:15:46;23.30;76.40
27633;DHT22;15046;50.930;13.334;2022-09-13T15:20:56;23.70;75.90
27633;DHT22;15046;50.930;13.334;2022-09-13T15:23:35;23.90;75.80
27633;DHT22;15046;50.930;13.334;2022-09-13T15:26:09;24.10;74.90
27633;DHT22;15046;50.930;13.334;2022-09-13T15:28:50;24.20;74.30
27633;DHT22;15046;50.930;13.334;2022-09-13T15:31:23;24.20;73.20
27633;DHT22;15046;50.930;13.334;2022-09-13T15:34:30;24.10;73.00
27633;DHT22;15046;50.930;13.334;2022-09-13T15:37:11;24.00;73.50
27633;DHT22;15046;50.930;13.334;2022-09-13T15:39:47;23.90;73.40
27633;DHT22;15046;50.930;13.334;2022-09-13T15:42:13;23.90;73.00
27633;DHT22;15046;50.930;13.334;2022-09-13T15:44:39;23.80;72.80
27633;DHT22;15046;50.930;13.334;2022-09-13T15:47:10;23.80;73.10
27633;DHT22;15046;50.930;13.334;2022-09-13T15:49:39;23.70;73.30
27633;DHT22;15046;50.930;13.334;2022-09-13T15:52:06;23.60;73.80
27633;DHT22;15046;50.930;13.334;2022-09-13T15:54:37;23.60;74.60
27633;DHT22;15046;50.930;13.334;2022-09-13T15:57:13;23.60;75.40
27633;DHT22;15046;50.930;13.334;2022-09-13T15:59:41;23.70;74.60
27633;DHT22;15046;50.930;13.334;2022-09-13T16:02:36;23.60;75.00
27633;DHT22;15046;50.930;13.334;2022-09-13T16:05:02;23.60;74.90
27633;DHT22;15046;50.930;13.334;2022-09-13T16:07:28;23.50;74.90
27633;DHT22;15046;50.930;13.334;2022-09-13T16:09:53;23.50;75.00
27633;DHT22;15046;50.930;13.334;2022-09-13T16:12:19;23.50;75.70
27633;DHT22;15046;50.930;13.334;2022-09-13T16:14:48;23.50;75.60
27633;DHT22;15046;50.930;13.334;2022-09-13T16:17:25;23.40;75.20
27633;DHT22;15046;50.930;13.334;2022-09-13T16:19:52;23.30;75.50
27633;DHT22;15046;50.930;13.334;2022-09-13T16:22:20;23.20;75.40
27633;DHT22;15046;50.930;13.334;2022-09-13T16:24:46;23.10;76.00
27633;DHT22;15046;50.930;13.334;2022-09-13T16:27:14;23.00;77.60
27633;DHT22;15046;50.930;13.334;2022-09-13T16:29:41;23.00;77.50
27633;DHT22;15046;50.930;13.334;2022-09-13T16:32:10;22.90;77.10
27633;DHT22;15046;50.930;13.334;2022-09-13T16:34:36;22.80;77.60
27633;DHT22;15046;50.930;13.334;2022-09-13T16:37:02;22.70;77.20
27633;DHT22;15046;50.930;13.334;2022-09-13T16:39:28;22.70;77.60
27633;DHT22;15046;50.930;13.334;2022-09-13T16:41:54;22.70;77.90
27633;DHT22;15046;50.930;13.334;2022-09-13T16:44:20;22.70;78.70
27633;DHT22;15046;50.930;13.334;2022-09-13T16:46:48;22.70;78.70
27633;DHT22;15046;50.930;13.334;2022-09-13T16:49:16;22.70;78.60
27633;DHT22;15046;50.930;13.334;2022-09-13T16:51:42;22.60;79.10
27633;DHT22;15046;50.930;13.334;2022-09-13T16:54:08;22.60;79.10
27633;DHT22;15046;50.930;13.334;2022-09-13T16:56:33;22.60;79.70
27633;DHT22;15046;50.930;13.334;2022-09-13T16:58:59;22.50;79.30
27633;DHT22;15046;50.930;13.334;2022-09-13T17:01:27;22.40;79.40
27633;DHT22;15046;50.930;13.334;2022-09-13T17:03:53;22.30;79.40
27633;DHT22;15046;50.930;13.334;2022-09-13T17:06:23;22.20;80.50
27633;DHT22;15046;50.930;13.334;2022-09-13T17:08:53;22.10;80.30
27633;DHT22;15046;50.930;13.334;2022-09-13T17:11:21;22.00;80.40
27633;DHT22;15046;50.930;13.334;2022-09-13T17:13:48;21.90;80.20
27633;DHT22;15046;50.930;13.334;2022-09-13T17:16:38;21.90;81.40
27633;DHT22;15046;50.930;13.334;2022-09-13T17:19:16;21.80;83.00
27633;DHT22;15046;50.930;13.334;2022-09-13T17:21:42;21.70;83.00
27633;DHT22;15046;50.930;13.334;2022-09-13T17:24:08;21.60;82.40
27633;DHT22;15046;50.930;13.334;2022-09-13T17:26:37;21.50;82.80
27633;DHT22;15046;50.930;13.334;2022-09-13T17:29:04;21.40;83.60
27633;DHT22;15046;50.930;13.334;2022-09-13T17:31:30;21.30;84.20
27633;DHT22;15046;50.930;13.334;2022-09-13T17:33:56;21.20;84.00
27633;DHT22;15046;50.930;13.334;2022-09-13T17:36:22;21.00;84.20
27633;DHT22;15046;50.930;13.334;2022-09-13T17:38:54;20.90;84.40
27633;DHT22;15046;50.930;13.334;2022-09-13T17:41:21;20.80;84.50
27633;DHT22;15046;50.930;13.334;2022-09-13T17:43:47;20.70;84.60
27633;DHT22;15046;50.930;13.334;2022-09-13T17:46:31;20.70;84.90
27633;DHT22;15046;50.930;13.334;2022-09-13T17:48:58;20.60;84.80
27633;DHT22;15046;50.930;13.334;2022-09-13T17:51:27;20.50;84.90
27633;DHT22;15046;50.930;13.334;2022-09-13T17:53:55;20.50;85.60
27633;DHT22;15046;50.930;13.334;2022-09-13T17:56:24;20.40;85.60
27633;DHT22;15046;50.930;13.334;2022-09-13T17:59:02;20.40;85.40
27633;DHT22;15046;50.930;13.334;2022-09-13T18:01:28;20.30;85.90
27633;DHT22;15046;50.930;13.334;2022-09-13T18:03:54;20.30;85.90
27633;DHT22;15046;50.930;13.334;2022-09-13T18:06:20;20.20;85.90
27633;DHT22;15046;50.930;13.334;2022-09-13T18:08:46;20.20;85.70
27633;DHT22;15046;50.930;13.334;2022-09-13T18:11:14;20.20;85.70
27633;DHT22;15046;50.930;13.334;2022-09-13T18:13:43;20.10;85.90
27633;DHT22;15046;50.930;13.334;2022-09-13T18:16:15;20.00;86.20
27633;DHT22;15046;50.930;13.334;2022-09-13T18:18:42;20.00;85.90
27633;DHT22;15046;50.930;13.334;2022-09-13T18:21:11;20.00;86.00
27633;DHT22;15046;50.930;13.334;2022-09-13T18:23:39;19.90;85.40
27633;DHT22;15046;50.930;13.334;2022-09-13T18:26:07;19.90;85.10
27633;DHT22;15046;50.930;13.334;2022-09-13T18:28:34;19.90;85.10
27633;DHT22;15046;50.930;13.334;2022-09-13T18:31:03;19.90;85.00
27633;DHT22;15046;50.930;13.334;2022-09-13T18:33:30;19.90;85.30
27633;DHT22;15046;50.930;13.334;2022-09-13T18:36:08;19.90;85.20
27633;DHT22;15046;50.930;13.334;2022-09-13T18:38:42;19.80;85.40
27633;DHT22;15046;50.930;13.334;2022-09-13T18:41:14;19.80;85.50
27633;DHT22;15046;50.930;13.334;2022-09-13T18:43:42;19.70;85.70
27633;DHT22;15046;50.930;13.334;2022-09-13T18:46:13;19.70;85.60
27633;DHT22;15046;50.930;13.334;2022-09-13T18:48:42;19.60;85.50
27633;DHT22;15046;50.930;13.334;2022-09-13T18:51:10;19.60;85.10
27633;DHT22;15046;50.930;13.334;2022-09-13T18:53:36;19.60;85.10
27633;DHT22;15046;50.930;13.334;2022-09-13T18:56:08;19.50;85.10
27633;DHT22;15046;50.930;13.334;2022-09-13T18:58:35;19.50;85.20
27633;DHT22;15046;50.930;13.334;2022-09-13T19:03:30;19.50;86.00
27633;DHT22;15046;50.930;13.334;2022-09-13T19:06:30;19.40;85.40
27633;DHT22;15046;50.930;13.334;2022-09-13T19:08:57;19.40;85.40
27633;DHT22;15046;50.930;13.334;2022-09-13T19:11:25;19.30;85.50
27633;DHT22;15046;50.930;13.334;2022-09-13T19:13:51;19.20;86.20
27633;DHT22;15046;50.930;13.334;2022-09-13T19:16:18;19.20;86.20
27633;DHT22;15046;50.930;13.334;2022-09-13T19:18:46;19.20;86.30